Terminal Aerodrome Forecast
Issued by NWS

Home | Current Version | Previous Version | Text Only | Print | Product List | Glossary On
Versions: 1 2 3 4 5 6 7 8 9 10 11 12 13 14 15 16 17 18 19 20 21 22 23 24
000
FTUS44 KOUN 211747
TAFPNC
TAF
KPNC 211747Z 2118/2218 12012KT 1/4SM FG OVC002
     FM212100 11006KT 2SM BR OVC004
      TEMPO 2206/2210 1SM -DZ BR OVC007
     FM221000 07004KT 1/2SM -DZ FG OVC004
     FM221400 15007KT 2SM -DZ BR OVC007=

USA.gov is the U.S. government's official web portal to all federal, state and local government web resources and services.